createdAt,value
2023-05-05T00:01:08.343Z,4.40
2023-05-05T00:03:36.943Z,4.53
2023-05-05T00:06:05.488Z,4.53
2023-05-05T00:08:33.576Z,4.72
2023-05-05T00:11:01.563Z,4.70
2023-05-05T00:13:29.448Z,4.50
2023-05-05T00:15:58.749Z,4.60
2023-05-05T00:18:26.761Z,4.70
2023-05-05T00:20:54.895Z,4.32
2023-05-05T00:23:22.767Z,4.35
2023-05-05T00:25:51.135Z,4.85
2023-05-05T00:28:19.135Z,4.75
2023-05-05T00:30:47.115Z,4.95
2023-05-05T00:33:16.761Z,5.72
2023-05-05T00:35:44.826Z,5.85
2023-05-05T00:38:12.822Z,7.32
2023-05-05T00:40:40.773Z,7.60
2023-05-05T00:43:09.013Z,8.52
2023-05-05T00:45:39.204Z,9.60
2023-05-05T00:48:08.075Z,7.28
2023-05-05T00:50:38.640Z,6.70
2023-05-05T00:53:07.842Z,7.32
2023-05-05T00:55:36.798Z,7.25
2023-05-05T00:58:05.199Z,7.07
2023-05-05T01:00:33.155Z,7.22
2023-05-05T01:03:01.426Z,6.88
2023-05-05T01:05:38.554Z,7.60
2023-05-05T01:08:28.950Z,7.85
2023-05-05T01:11:03.166Z,7.63
2023-05-05T01:13:38.767Z,7.55
2023-05-05T01:16:16.171Z,7.65
2023-05-05T01:18:54.538Z,7.35
2023-05-05T01:21:28.237Z,6.85
2023-05-05T01:24:14.310Z,6.93
2023-05-05T01:27:07.704Z,6.85
2023-05-05T01:30:03.299Z,6.70
2023-05-05T01:32:36.960Z,6.90
2023-05-05T01:35:14.950Z,6.63
2023-05-05T01:37:47.309Z,6.70
2023-05-05T01:42:45.656Z,7.10
2023-05-05T01:45:15.844Z,6.70
2023-05-05T01:47:47.824Z,6.95
2023-05-05T01:50:17.191Z,7.45
2023-05-05T01:52:46.536Z,6.65
2023-05-05T01:55:19.097Z,7.28
2023-05-05T01:57:49.082Z,7.13
2023-05-05T02:00:19.510Z,7.07
2023-05-05T02:02:51.010Z,6.82
2023-05-05T02:05:22.736Z,7.00
2023-05-05T02:07:52.309Z,6.93
2023-05-05T02:10:20.830Z,7.30
2023-05-05T02:12:51.277Z,7.35
2023-05-05T02:15:20.117Z,7.80
2023-05-05T02:17:51.960Z,7.35
2023-05-05T02:20:21.269Z,7.97
2023-05-05T02:22:49.795Z,8.45
2023-05-05T02:25:19.014Z,7.78
2023-05-05T02:27:49.187Z,8.18
2023-05-05T02:30:20.876Z,8.15
2023-05-05T02:32:56.225Z,7.95
2023-05-05T02:35:28.127Z,9.15
2023-05-05T02:38:02.572Z,8.50
2023-05-05T02:40:34.646Z,9.18
2023-05-05T02:43:07.969Z,9.65
2023-05-05T02:45:38.936Z,9.13
2023-05-05T02:48:10.852Z,9.80
2023-05-05T02:50:38.918Z,11.05
2023-05-05T02:53:07.685Z,11.38
2023-05-05T02:55:43.212Z,11.18
2023-05-05T02:58:22.396Z,11.40
2023-05-05T03:00:58.289Z,11.93
2023-05-05T03:03:37.131Z,11.90
2023-05-05T03:06:12.906Z,12.35
2023-05-05T03:08:45.823Z,12.93
2023-05-05T03:11:20.005Z,13.32
2023-05-05T03:13:52.774Z,14.32
2023-05-05T03:16:24.348Z,14.25
2023-05-05T03:18:54.804Z,13.90
2023-05-05T03:21:22.920Z,14.65
2023-05-05T03:23:51.034Z,13.77
2023-05-05T03:26:19.359Z,14.32
2023-05-05T03:28:47.362Z,14.25
2023-05-05T03:31:15.700Z,14.30
2023-05-05T03:33:43.702Z,15.13
2023-05-05T03:36:13.103Z,43.00
2023-05-05T03:38:45.187Z,18.38
2023-05-05T03:41:13.111Z,19.05
2023-05-05T03:43:41.426Z,17.05
2023-05-05T03:46:10.292Z,14.65
2023-05-05T03:48:38.288Z,15.30
2023-05-05T03:51:06.165Z,16.02
2023-05-05T03:53:35.699Z,15.77
2023-05-05T03:56:03.576Z,15.05
2023-05-05T03:58:31.420Z,15.45
2023-05-05T04:00:59.288Z,15.18
2023-05-05T04:03:27.530Z,16.20
2023-05-05T04:05:55.954Z,16.10
2023-05-05T04:08:23.704Z,16.05
2023-05-05T04:10:53.143Z,16.13
2023-05-05T04:13:21.048Z,16.00
2023-05-05T04:15:48.917Z,16.42
2023-05-05T04:18:16.740Z,16.48
2023-05-05T04:20:44.583Z,17.58
2023-05-05T04:23:12.461Z,17.42
2023-05-05T04:25:40.778Z,18.00
2023-05-05T04:28:10.166Z,16.95
2023-05-05T04:30:38.135Z,17.60
2023-05-05T04:33:06.216Z,18.52
2023-05-05T04:35:34.158Z,18.45
2023-05-05T04:38:02.235Z,18.63
2023-05-05T04:40:30.056Z,16.77
2023-05-05T04:42:57.996Z,19.23
2023-05-05T04:45:27.522Z,19.42
2023-05-05T04:47:55.442Z,17.13
2023-05-05T04:50:23.349Z,17.77
2023-05-05T04:52:52.695Z,16.73
2023-05-05T04:55:20.940Z,17.17
2023-05-05T04:57:48.783Z,16.40
2023-05-05T05:00:17.089Z,18.10
2023-05-05T05:02:46.472Z,18.52
2023-05-05T05:05:14.356Z,17.77
2023-05-05T05:07:42.314Z,17.42
2023-05-05T05:10:11.146Z,17.33
2023-05-05T05:12:39.273Z,18.05
2023-05-05T05:15:08.566Z,18.63
2023-05-05T05:17:36.791Z,17.40
2023-05-05T05:20:07.843Z,18.23
2023-05-05T05:22:38.346Z,17.88
2023-05-05T05:25:06.996Z,18.00
2023-05-05T05:27:35.084Z,17.15
2023-05-05T05:30:03.216Z,17.92
2023-05-05T05:32:31.658Z,18.33
2023-05-05T05:35:08.694Z,18.20
2023-05-05T05:37:36.796Z,19.15
2023-05-05T05:40:06.097Z,19.05
2023-05-05T05:42:34.215Z,18.92
2023-05-05T05:45:02.239Z,16.27
2023-05-05T05:47:30.184Z,17.92
2023-05-05T05:49:58.085Z,18.50
2023-05-05T05:52:27.320Z,18.98
2023-05-05T05:54:55.337Z,18.65
2023-05-05T05:57:24.701Z,18.60
2023-05-05T05:59:53.915Z,18.50
2023-05-05T06:02:24.356Z,17.15
2023-05-05T06:04:52.615Z,18.65
2023-05-05T06:07:20.673Z,18.27
2023-05-05T06:09:50.630Z,19.85
2023-05-05T06:12:18.604Z,18.25
2023-05-05T06:14:46.387Z,18.17
2023-05-05T06:17:14.195Z,18.10
2023-05-05T06:19:42.217Z,18.48
2023-05-05T06:22:10.099Z,18.17
2023-05-05T06:24:38.161Z,17.85
2023-05-05T06:27:07.647Z,16.90
2023-05-05T06:29:35.617Z,16.42
2023-05-05T06:32:03.841Z,16.67
2023-05-05T06:34:31.828Z,16.25
2023-05-05T06:36:59.669Z,15.77
2023-05-05T06:39:27.478Z,15.98
2023-05-05T06:41:55.659Z,14.23
2023-05-05T06:44:25.155Z,15.00
2023-05-05T06:46:53.224Z,15.23
2023-05-05T06:49:21.133Z,14.10
2023-05-05T06:51:49.030Z,15.23
2023-05-05T06:54:16.942Z,16.13
2023-05-05T06:56:44.785Z,15.45
2023-05-05T06:59:12.905Z,15.88
2023-05-05T07:01:42.234Z,15.95
2023-05-05T07:04:10.089Z,16.25
2023-05-05T07:06:38.132Z,16.33
2023-05-05T07:09:09.116Z,14.75
2023-05-05T07:11:37.992Z,14.30
2023-05-05T07:14:06.284Z,14.75
2023-05-05T07:16:34.763Z,13.95
2023-05-05T07:19:05.515Z,14.48
2023-05-05T07:21:34.628Z,14.93
2023-05-05T07:24:03.859Z,15.05
2023-05-05T07:26:31.930Z,14.43
2023-05-05T07:28:59.834Z,14.80
2023-05-05T07:31:27.712Z,13.30
2023-05-05T07:33:55.574Z,12.70
2023-05-05T07:36:24.871Z,13.00
2023-05-05T07:38:52.693Z,12.25
2023-05-05T07:41:20.560Z,12.27
2023-05-05T07:43:48.403Z,12.95
2023-05-05T07:46:16.398Z,11.43
2023-05-05T07:48:44.493Z,12.15
2023-05-05T07:51:13.493Z,11.52
2023-05-05T07:53:43.613Z,11.38
2023-05-05T07:56:11.561Z,12.05
2023-05-05T07:58:39.349Z,11.05
2023-05-05T08:01:10.885Z,14.05
2023-05-05T08:03:39.119Z,12.25
2023-05-05T08:06:09.672Z,11.35
2023-05-05T08:08:38.083Z,10.80
2023-05-05T08:11:07.938Z,10.63
2023-05-05T08:13:35.899Z,10.20
2023-05-05T08:16:04.316Z,10.02
2023-05-05T08:18:32.297Z,10.60
2023-05-05T08:21:00.186Z,8.38
2023-05-05T08:23:28.009Z,8.43
2023-05-05T08:25:55.934Z,9.93
2023-05-05T08:28:25.163Z,9.43
2023-05-05T08:30:53.038Z,8.93
2023-05-05T08:33:21.017Z,8.45
2023-05-05T08:35:49.829Z,8.60
2023-05-05T08:38:19.145Z,8.30
2023-05-05T08:40:47.091Z,8.93
2023-05-05T08:43:15.898Z,7.93
2023-05-05T08:45:46.221Z,9.20
2023-05-05T08:48:14.631Z,9.60
2023-05-05T08:50:46.269Z,9.00
2023-05-05T08:53:18.512Z,7.65
2023-05-05T08:58:19.598Z,8.60
2023-05-05T09:00:49.250Z,8.13
2023-05-05T09:03:17.868Z,9.02
2023-05-05T09:05:46.076Z,8.18
2023-05-05T09:08:14.307Z,7.45
2023-05-05T09:10:43.193Z,7.22
2023-05-05T09:13:11.508Z,7.53
2023-05-05T09:15:41.418Z,8.52
2023-05-05T09:18:12.211Z,7.85
2023-05-05T09:20:41.695Z,7.57
2023-05-05T09:23:11.359Z,8.65
2023-05-05T09:25:41.567Z,8.27
2023-05-05T09:28:11.028Z,8.10
2023-05-05T09:30:39.638Z,7.90
2023-05-05T09:33:07.501Z,7.65
2023-05-05T09:35:52.251Z,8.77
2023-05-05T09:38:20.805Z,8.73
2023-05-05T09:40:50.610Z,9.35
2023-05-05T09:43:19.591Z,9.60
2023-05-05T09:45:48.754Z,9.90
2023-05-05T09:48:27.199Z,8.13
2023-05-05T09:50:57.078Z,8.05
2023-05-05T09:53:25.301Z,8.70
2023-05-05T09:55:57.385Z,8.27
2023-05-05T09:58:26.842Z,8.60
2023-05-05T10:00:58.442Z,6.80
2023-05-05T10:03:32.085Z,7.75
2023-05-05T10:06:02.810Z,7.18
2023-05-05T10:08:35.426Z,6.60
2023-05-05T10:11:07.017Z,6.95
2023-05-05T10:13:37.668Z,6.53
2023-05-05T10:16:09.659Z,7.00
2023-05-05T10:21:08.492Z,8.85
2023-05-05T10:23:40.348Z,7.22
2023-05-05T10:26:11.421Z,8.32
2023-05-05T10:28:45.000Z,7.53
2023-05-05T10:31:25.833Z,7.10
2023-05-05T10:34:01.483Z,7.18
2023-05-05T10:36:31.863Z,7.28
2023-05-05T10:39:01.537Z,7.60
2023-05-05T10:41:30.864Z,8.05
2023-05-05T10:44:02.866Z,7.63
2023-05-05T10:46:35.489Z,7.65
2023-05-05T10:49:13.075Z,8.10
2023-05-05T10:51:51.165Z,6.90
2023-05-05T10:54:38.605Z,7.25
2023-05-05T10:57:11.249Z,7.13
2023-05-05T10:59:43.684Z,7.00
2023-05-05T11:02:24.949Z,6.80
2023-05-05T11:05:09.789Z,6.87
2023-05-05T11:07:39.457Z,7.53
2023-05-05T11:10:08.899Z,8.15
2023-05-05T11:13:06.747Z,8.02
2023-05-05T11:15:43.804Z,7.47
2023-05-05T11:18:35.914Z,7.55
2023-05-05T11:21:17.861Z,7.32
2023-05-05T11:23:52.029Z,7.60
2023-05-05T11:26:36.593Z,6.63
2023-05-05T11:29:06.468Z,6.40
2023-05-05T11:31:34.683Z,6.20
2023-05-05T11:34:31.213Z,6.60
2023-05-05T11:37:02.589Z,6.25
2023-05-05T11:39:41.503Z,6.45
2023-05-05T11:42:25.986Z,6.32
2023-05-05T11:44:55.203Z,6.07
2023-05-05T11:47:33.256Z,5.30
2023-05-05T11:50:18.099Z,5.50
2023-05-05T11:52:46.654Z,6.05
2023-05-05T11:55:21.381Z,5.57
2023-05-05T11:57:49.716Z,5.07
2023-05-05T12:00:18.432Z,4.97
2023-05-05T12:02:46.484Z,3.90
2023-05-05T12:05:20.966Z,3.38
2023-05-05T12:07:49.046Z,3.78
2023-05-05T12:10:25.153Z,3.60
2023-05-05T12:12:56.025Z,3.92
2023-05-05T12:15:33.696Z,5.00
2023-05-05T12:18:03.409Z,4.50
2023-05-05T12:20:33.376Z,4.32
2023-05-05T12:23:02.733Z,4.70
2023-05-05T12:25:38.527Z,4.55
2023-05-05T12:28:07.395Z,4.47
2023-05-05T12:30:35.973Z,4.15
2023-05-05T12:33:05.191Z,5.18
2023-05-05T12:35:36.217Z,4.90
2023-05-05T12:38:04.608Z,6.30
2023-05-05T12:40:51.839Z,4.97
2023-05-05T12:43:27.162Z,4.95
2023-05-05T12:46:06.562Z,4.97
2023-05-05T12:48:34.946Z,3.83
2023-05-05T12:51:17.365Z,4.53
2023-05-05T12:53:46.346Z,4.38
2023-05-05T12:56:40.848Z,3.78
2023-05-05T12:59:11.221Z,3.53
2023-05-05T13:01:50.961Z,4.38
2023-05-05T13:04:21.084Z,4.65
2023-05-05T13:06:54.492Z,4.72
2023-05-05T13:09:26.977Z,7.10
2023-05-05T13:11:56.781Z,6.40
2023-05-05T13:14:26.788Z,12.55
2023-05-05T13:16:54.925Z,21.13
2023-05-05T13:19:26.150Z,4.90
2023-05-05T13:21:54.509Z,4.10
2023-05-05T13:24:38.160Z,2.10
2023-05-05T13:27:15.706Z,1.95
2023-05-05T13:29:45.762Z,1.75
2023-05-05T13:32:17.638Z,1.60
2023-05-05T13:34:54.417Z,1.48
2023-05-05T13:37:42.637Z,1.60
2023-05-05T13:40:13.529Z,1.40
2023-05-05T13:42:45.812Z,2.38
2023-05-05T13:45:14.374Z,1.95
2023-05-05T13:47:45.345Z,2.47
2023-05-05T13:50:13.530Z,3.78
2023-05-05T13:52:42.016Z,3.50
2023-05-05T13:55:11.911Z,3.58
2023-05-05T13:57:39.944Z,3.60
2023-05-05T14:00:11.874Z,3.10
2023-05-05T14:02:40.051Z,3.05
2023-05-05T14:05:09.884Z,2.67
2023-05-05T14:07:38.401Z,2.80
2023-05-05T14:10:07.719Z,2.70
2023-05-05T14:12:36.500Z,2.40
2023-05-05T14:15:08.580Z,2.20
2023-05-05T14:17:42.317Z,2.20
2023-05-05T14:20:11.524Z,2.10
2023-05-05T14:22:42.383Z,1.83
2023-05-05T14:25:10.755Z,1.83
2023-05-05T14:27:38.972Z,2.00
2023-05-05T14:30:08.602Z,1.83
2023-05-05T14:32:38.801Z,1.52
2023-05-05T14:35:08.281Z,1.50
2023-05-05T14:37:37.595Z,1.60
2023-05-05T14:40:06.926Z,1.52
2023-05-05T14:42:42.550Z,1.20
2023-05-05T14:45:11.351Z,1.50
2023-05-05T14:47:40.844Z,1.40
2023-05-05T14:50:10.052Z,1.60
2023-05-05T14:52:39.328Z,1.40
2023-05-05T14:55:08.965Z,1.48
2023-05-05T14:57:39.124Z,2.10
2023-05-05T15:00:08.428Z,1.92
2023-05-05T15:02:38.116Z,2.42
2023-05-05T15:05:09.051Z,2.10
2023-05-05T15:07:42.434Z,2.40
2023-05-05T15:10:11.656Z,2.70
2023-05-05T15:12:39.766Z,2.13
2023-05-05T15:15:11.443Z,2.00
2023-05-05T15:17:41.850Z,1.98
2023-05-05T15:20:13.272Z,1.90
2023-05-05T15:22:41.696Z,2.08
2023-05-05T15:25:15.067Z,2.30
2023-05-05T15:27:43.229Z,2.13
2023-05-05T15:30:14.019Z,2.30
2023-05-05T15:32:42.085Z,2.20
2023-05-05T15:35:12.132Z,2.13
2023-05-05T15:37:42.517Z,2.42
2023-05-05T15:40:13.790Z,2.30
2023-05-05T15:42:43.119Z,2.10
2023-05-05T15:45:19.082Z,3.13
2023-05-05T15:47:48.081Z,2.55
2023-05-05T15:50:18.344Z,2.90
2023-05-05T15:52:48.148Z,2.90
2023-05-05T15:55:19.854Z,2.80
2023-05-05T15:57:47.792Z,2.63
2023-05-05T16:00:16.794Z,2.92
2023-05-05T16:02:59.062Z,2.70
2023-05-05T16:05:31.669Z,2.80
2023-05-05T16:08:00.512Z,2.92
2023-05-05T16:10:28.943Z,2.70
2023-05-05T16:12:57.557Z,2.30
2023-05-05T16:15:25.844Z,2.22
2023-05-05T16:17:54.188Z,3.00
2023-05-05T16:20:24.695Z,2.70
2023-05-05T16:22:54.176Z,2.60
2023-05-05T16:25:23.726Z,2.78
2023-05-05T16:27:52.151Z,3.08
2023-05-05T16:30:20.435Z,2.80
2023-05-05T16:32:51.290Z,2.47
2023-05-05T16:35:19.597Z,2.38
2023-05-05T16:37:47.814Z,2.50
2023-05-05T16:40:17.257Z,3.00
2023-05-05T16:42:46.425Z,2.95
2023-05-05T16:45:18.102Z,2.20
2023-05-05T16:47:46.106Z,3.03
2023-05-05T16:50:14.287Z,2.55
2023-05-05T16:52:42.346Z,3.28
2023-05-05T16:55:11.178Z,2.38
2023-05-05T16:57:41.083Z,2.47
2023-05-05T17:00:12.280Z,2.70
2023-05-05T17:02:40.213Z,3.40
2023-05-05T17:05:09.089Z,2.42
2023-05-05T17:07:38.892Z,2.60
2023-05-05T17:10:08.266Z,3.45
2023-05-05T17:12:36.444Z,2.67
2023-05-05T17:15:06.981Z,2.47
2023-05-05T17:17:37.017Z,2.80
2023-05-05T17:20:08.467Z,2.78
2023-05-05T17:22:39.845Z,3.03
2023-05-05T17:25:09.016Z,2.53
2023-05-05T17:27:40.877Z,3.28
2023-05-05T17:30:11.234Z,2.53
2023-05-05T17:32:39.160Z,2.97
2023-05-05T17:35:08.150Z,11.05
2023-05-05T17:37:36.733Z,6.07
2023-05-05T17:40:05.375Z,6.20
2023-05-05T17:42:34.031Z,7.50
2023-05-05T17:45:01.913Z,14.18
2023-05-05T17:47:31.302Z,3.60
2023-05-05T17:49:59.466Z,4.47
2023-05-05T17:52:27.289Z,3.00
2023-05-05T17:54:55.181Z,2.92
2023-05-05T17:57:23.140Z,3.30
2023-05-05T17:59:53.534Z,3.17
2023-05-05T18:02:21.956Z,3.10
2023-05-05T18:04:51.304Z,2.55
2023-05-05T18:07:19.175Z,3.00
2023-05-05T18:09:51.472Z,2.30
2023-05-05T18:12:19.488Z,4.38
2023-05-05T18:14:47.453Z,3.10
2023-05-05T18:17:15.530Z,3.28
2023-05-05T18:19:46.625Z,3.30
2023-05-05T18:22:18.094Z,3.50
2023-05-05T18:24:47.323Z,3.78
2023-05-05T18:27:17.670Z,3.17
2023-05-05T18:29:45.587Z,3.40
2023-05-05T18:32:13.464Z,3.20
2023-05-05T18:34:41.456Z,2.92
2023-05-05T18:37:13.270Z,3.70
2023-05-05T18:39:44.027Z,3.08
2023-05-05T18:42:13.072Z,3.53
2023-05-05T18:44:41.529Z,3.15
2023-05-05T18:47:11.616Z,4.22
2023-05-05T18:49:39.553Z,3.58
2023-05-05T18:52:07.510Z,3.33
2023-05-05T18:54:37.805Z,4.10
2023-05-05T18:57:07.528Z,4.10
2023-05-05T18:59:35.475Z,3.80
2023-05-05T19:02:03.402Z,5.65
2023-05-05T19:04:32.189Z,4.10
2023-05-05T19:07:00.328Z,4.40
2023-05-05T19:09:29.086Z,4.50
2023-05-05T19:11:56.952Z,4.72
2023-05-05T19:14:26.318Z,5.05
2023-05-05T19:16:55.757Z,5.47
2023-05-05T19:19:23.816Z,4.45
2023-05-05T19:21:51.884Z,4.45
2023-05-05T19:24:19.831Z,4.68
2023-05-05T19:26:47.641Z,5.05
2023-05-05T19:29:16.324Z,5.50
2023-05-05T19:31:45.684Z,4.82
2023-05-05T19:34:13.576Z,4.75
2023-05-05T19:36:41.470Z,6.32
2023-05-05T19:39:09.289Z,5.18
2023-05-05T19:41:37.091Z,5.88
2023-05-05T19:44:05.162Z,6.50
2023-05-05T19:46:33.294Z,6.50
2023-05-05T19:49:10.980Z,6.22
2023-05-05T19:51:39.702Z,7.45
2023-05-05T19:54:07.665Z,6.65
2023-05-05T19:56:35.668Z,6.10
2023-05-05T19:59:06.277Z,6.45
2023-05-05T20:01:37.071Z,7.13
2023-05-05T20:04:06.654Z,8.40
2023-05-05T20:06:36.270Z,6.72
2023-05-05T20:09:04.871Z,7.40
2023-05-05T20:11:33.281Z,6.70
2023-05-05T20:14:01.402Z,7.03
2023-05-05T20:16:29.336Z,10.60
2023-05-05T20:18:57.318Z,10.98
2023-05-05T20:21:27.272Z,12.20
2023-05-05T20:23:55.629Z,12.07
2023-05-05T20:26:24.461Z,10.57
2023-05-05T20:28:52.445Z,9.40
2023-05-05T20:31:20.444Z,9.98
2023-05-05T20:33:48.390Z,13.75
2023-05-05T20:36:16.748Z,10.43
2023-05-05T20:38:46.245Z,10.80
2023-05-05T20:41:14.332Z,12.20
2023-05-05T20:43:42.692Z,12.05
2023-05-05T20:46:13.307Z,10.55
2023-05-05T20:48:42.937Z,10.05
2023-05-05T20:51:11.693Z,9.65
2023-05-05T20:53:39.801Z,9.38
2023-05-05T20:56:09.294Z,11.35
2023-05-05T20:58:37.289Z,8.95
2023-05-05T21:01:05.224Z,8.48
2023-05-05T21:03:33.216Z,9.88
2023-05-05T21:06:01.108Z,9.38
2023-05-05T21:08:31.998Z,8.55
2023-05-05T21:11:00.272Z,10.98
2023-05-05T21:13:53.859Z,10.02
2023-05-05T21:16:43.120Z,9.80
2023-05-05T21:19:22.818Z,8.40
2023-05-05T21:22:15.291Z,8.27
2023-05-05T21:25:22.771Z,8.68
2023-05-05T21:28:07.797Z,8.15
2023-05-05T21:31:19.739Z,7.70
2023-05-05T21:34:05.467Z,7.30
2023-05-05T21:37:06.270Z,8.15
2023-05-05T21:42:19.093Z,8.88
2023-05-05T21:44:46.971Z,7.95
2023-05-05T21:47:16.300Z,11.32
2023-05-05T21:49:44.152Z,10.48
2023-05-05T21:52:11.869Z,10.27
2023-05-05T21:54:39.682Z,8.80
2023-05-05T21:57:07.459Z,8.90
2023-05-05T21:59:35.952Z,10.40
2023-05-05T22:02:03.721Z,9.52
2023-05-05T22:04:32.854Z,12.20
2023-05-05T22:07:00.900Z,14.05
2023-05-05T22:09:28.578Z,10.07
2023-05-05T22:11:56.341Z,10.82
2023-05-05T22:14:24.233Z,11.95
2023-05-05T22:16:52.082Z,12.60
2023-05-05T22:19:19.850Z,11.70
2023-05-05T22:21:49.005Z,13.48
2023-05-05T22:24:16.817Z,14.23
2023-05-05T22:26:44.549Z,11.45
2023-05-05T22:29:12.411Z,11.15
2023-05-05T22:31:40.270Z,11.80
2023-05-05T22:34:08.759Z,9.80
2023-05-05T22:36:36.767Z,12.35
2023-05-05T22:39:05.896Z,12.30
2023-05-05T22:41:33.602Z,13.30
2023-05-05T22:44:01.372Z,11.60
2023-05-05T22:46:29.223Z,9.98
2023-05-05T22:48:56.997Z,9.70
2023-05-05T22:51:24.848Z,12.20
2023-05-05T22:53:54.394Z,10.65
2023-05-05T22:56:23.566Z,13.82
2023-05-05T22:58:51.312Z,14.25
2023-05-05T23:01:19.184Z,14.50
2023-05-05T23:03:46.949Z,14.60
2023-05-05T23:06:14.749Z,13.98
2023-05-05T23:08:42.766Z,12.55
2023-05-05T23:11:10.541Z,12.18
2023-05-05T23:13:39.670Z,11.10
2023-05-05T23:16:07.886Z,13.23
2023-05-05T23:18:38.750Z,12.98
2023-05-05T23:21:06.569Z,11.68
2023-05-05T23:23:34.332Z,10.98
2023-05-05T23:26:02.209Z,12.43
2023-05-05T23:28:30.046Z,13.98
2023-05-05T23:30:59.320Z,14.68
2023-05-05T23:33:27.113Z,14.77
2023-05-05T23:35:55.355Z,16.88
2023-05-05T23:38:23.060Z,13.73
2023-05-05T23:40:50.708Z,15.32
2023-05-05T23:43:18.373Z,13.15
2023-05-05T23:45:46.096Z,14.77
2023-05-05T23:48:15.202Z,13.85
2023-05-05T23:50:42.952Z,14.63
2023-05-05T23:53:10.830Z,11.98
2023-05-05T23:55:38.643Z,11.10
2023-05-05T23:58:06.393Z,14.60
